createdAt,value
2017-11-13T00:02:51.415Z,91.18
2017-11-13T00:08:54.850Z,91.13
2017-11-13T00:14:58.328Z,91.13
2017-11-13T00:21:01.773Z,91.01
2017-11-13T00:27:05.248Z,90.59
2017-11-13T00:33:08.704Z,90.64
2017-11-13T00:39:12.960Z,90.35
2017-11-13T00:45:16.413Z,90.49
2017-11-13T00:51:19.876Z,90.42
2017-11-13T00:57:24.128Z,90.40
2017-11-13T01:03:27.589Z,90.62
2017-11-13T01:09:31.076Z,90.66
2017-11-13T01:15:34.529Z,90.20
2017-11-13T01:21:38.769Z,90.49
2017-11-13T01:27:42.241Z,90.41
2017-11-13T01:33:45.719Z,90.41
2017-11-13T01:39:49.177Z,90.49
2017-11-13T01:45:53.403Z,89.96
2017-11-13T01:51:56.866Z,90.01
2017-11-13T01:58:00.337Z,90.34
2017-11-13T02:04:03.794Z,90.49
2017-11-13T02:10:07.267Z,90.12
2017-11-13T02:16:10.740Z,90.13
2017-11-13T02:22:14.183Z,90.13
2017-11-13T02:28:18.410Z,90.36
2017-11-13T02:34:21.869Z,90.33
2017-11-13T02:40:26.089Z,90.46
2017-11-13T02:46:29.521Z,89.97
2017-11-13T02:52:32.974Z,89.67
2017-11-13T02:58:36.425Z,89.42
2017-11-13T03:04:40.670Z,89.32
2017-11-13T03:10:44.134Z,88.68
2017-11-13T03:16:47.597Z,88.80
2017-11-13T03:22:51.084Z,89.06
2017-11-13T03:28:54.548Z,89.27
2017-11-13T03:34:58.796Z,89.32
2017-11-13T03:41:02.257Z,88.88
2017-11-13T03:47:05.745Z,88.76
2017-11-13T03:53:09.179Z,88.65
2017-11-13T03:59:12.649Z,88.82
2017-11-13T04:05:16.222Z,89.00
2017-11-13T04:11:19.681Z,89.12
2017-11-13T04:17:23.181Z,89.50
2017-11-13T04:23:26.656Z,89.83
2017-11-13T04:29:30.127Z,90.16
2017-11-13T04:35:33.582Z,90.36
2017-11-13T04:41:37.844Z,90.76
2017-11-13T04:47:41.318Z,90.78
2017-11-13T04:53:44.787Z,90.79
2017-11-13T04:59:48.250Z,90.85
2017-11-13T05:05:52.452Z,90.65
2017-11-13T05:11:56.681Z,90.25
2017-11-13T05:18:00.143Z,90.04
2017-11-13T05:24:03.702Z,89.95
2017-11-13T05:30:07.154Z,89.94
2017-11-13T05:36:10.619Z,89.91
2017-11-13T05:42:14.043Z,90.04
2017-11-13T05:48:17.540Z,89.98
2017-11-13T05:54:21.762Z,89.83
2017-11-13T06:00:25.227Z,89.89
2017-11-13T06:06:29.454Z,90.10
2017-11-13T06:12:32.918Z,90.44
2017-11-13T06:18:37.168Z,90.88
2017-11-13T06:24:40.621Z,90.79
2017-11-13T06:30:44.080Z,90.33
2017-11-13T06:36:48.313Z,90.31
2017-11-13T06:42:51.918Z,90.77
2017-11-13T06:48:55.438Z,90.25
2017-11-13T06:54:58.894Z,89.90
2017-11-13T07:01:02.370Z,89.81
2017-11-13T07:07:05.827Z,89.71
2017-11-13T07:13:09.298Z,89.50
2017-11-13T07:19:13.538Z,89.09
2017-11-13T07:25:17.011Z,88.87
2017-11-13T07:31:20.470Z,88.13
2017-11-13T07:37:24.703Z,88.43
2017-11-13T07:43:28.177Z,88.06
2017-11-13T07:49:31.629Z,87.16
2017-11-13T07:55:35.840Z,87.16
2017-11-13T08:01:40.082Z,86.78
2017-11-13T08:07:43.551Z,86.21
2017-11-13T08:13:47.032Z,87.10
2017-11-13T08:19:50.500Z,87.14
2017-11-13T08:25:53.976Z,86.75
2017-11-13T08:31:58.190Z,85.96
2017-11-13T08:38:01.652Z,86.67
2017-11-13T08:44:05.891Z,86.41
2017-11-13T08:50:09.318Z,86.01
2017-11-13T08:56:12.829Z,86.79
2017-11-13T09:02:16.327Z,85.87
2017-11-13T09:08:19.783Z,85.81
2017-11-13T09:14:24.011Z,84.74
2017-11-13T09:20:27.487Z,84.39
2017-11-13T09:26:31.824Z,84.70
2017-11-13T09:32:35.267Z,84.82
2017-11-13T09:38:39.519Z,84.25
2017-11-13T09:44:42.975Z,84.62
2017-11-13T09:50:46.444Z,85.14
2017-11-13T09:56:50.665Z,85.24
2017-11-13T10:02:54.121Z,85.74
2017-11-13T10:08:58.399Z,85.51
2017-11-13T10:15:02.665Z,86.01
2017-11-13T10:21:06.121Z,83.54
2017-11-13T10:27:09.567Z,82.88
2017-11-13T10:33:13.019Z,84.46
2017-11-13T10:39:16.477Z,83.09
2017-11-13T10:45:19.918Z,82.85
2017-11-13T10:51:23.385Z,82.64
2017-11-13T10:57:26.882Z,82.26
2017-11-13T11:03:30.341Z,81.43
2017-11-13T11:09:33.808Z,80.54
2017-11-13T11:15:38.144Z,78.46
2017-11-13T11:21:43.493Z,78.89
2017-11-13T11:27:46.960Z,78.37
2017-11-13T11:33:50.794Z,77.61
2017-11-13T11:39:54.352Z,77.77
2017-11-13T11:46:01.253Z,77.02
2017-11-13T11:52:04.697Z,78.02
2017-11-13T11:58:08.153Z,79.04
2017-11-13T12:04:11.619Z,78.07
2017-11-13T12:10:15.087Z,79.56
2017-11-13T12:16:18.559Z,79.92
2017-11-13T12:22:22.039Z,79.84
2017-11-13T12:28:26.277Z,80.89
2017-11-13T12:34:29.761Z,80.87
2017-11-13T12:40:33.227Z,80.56
2017-11-13T12:46:36.689Z,80.79
2017-11-13T12:52:40.906Z,80.43
2017-11-13T12:58:44.386Z,79.56
2017-11-13T13:04:47.841Z,77.74
2017-11-13T13:10:51.324Z,76.94
2017-11-13T13:16:54.779Z,77.31
2017-11-13T13:22:58.248Z,77.41
2017-11-13T13:29:01.745Z,75.23
2017-11-13T13:35:05.179Z,73.94
2017-11-13T13:41:09.404Z,74.28
2017-11-13T13:47:12.862Z,75.01
2017-11-13T13:53:17.104Z,76.09
2017-11-13T13:59:20.584Z,75.22
2017-11-13T14:05:24.102Z,75.06
2017-11-13T14:11:27.654Z,73.60
2017-11-13T14:17:31.100Z,72.11
2017-11-13T14:23:35.333Z,73.71
2017-11-13T14:29:38.784Z,74.25
2017-11-13T14:35:43.005Z,74.95
2017-11-13T14:41:46.521Z,75.26
2017-11-13T14:47:50.137Z,76.28
2017-11-13T14:53:53.606Z,77.55
2017-11-13T14:59:57.110Z,79.42
2017-11-13T15:06:01.347Z,79.27
2017-11-13T15:12:04.808Z,79.09
2017-11-13T15:18:09.055Z,80.74
2017-11-13T15:24:12.506Z,81.93
2017-11-13T15:30:15.977Z,83.35
2017-11-13T15:36:20.221Z,83.93
2017-11-13T15:42:23.694Z,83.81
2017-11-13T15:48:27.174Z,84.26
2017-11-13T15:54:30.624Z,84.21
2017-11-13T16:00:34.850Z,84.60
2017-11-13T16:06:38.320Z,85.99
2017-11-13T16:12:42.570Z,86.48
2017-11-13T16:18:46.036Z,86.23
2017-11-13T16:24:49.507Z,86.38
2017-11-13T16:30:52.964Z,87.66
2017-11-13T16:36:57.216Z,87.78
2017-11-13T16:43:00.713Z,87.97
2017-11-13T16:49:04.205Z,87.78
2017-11-13T16:55:07.772Z,87.05
2017-11-13T17:01:11.362Z,86.99
2017-11-13T17:07:14.912Z,86.47
2017-11-13T17:13:18.452Z,87.34
2017-11-13T17:19:22.330Z,86.69
2017-11-13T17:25:25.776Z,87.09
2017-11-13T17:31:29.255Z,87.51
2017-11-13T17:37:32.737Z,88.23
2017-11-13T17:43:36.853Z,86.78
2017-11-13T17:49:40.351Z,87.50
2017-11-13T17:55:43.821Z,88.01
2017-11-13T18:01:47.275Z,87.88
2017-11-13T18:07:51.489Z,87.68
2017-11-13T18:13:54.946Z,87.57
2017-11-13T18:19:58.391Z,88.09
2017-11-13T18:26:01.869Z,87.58
2017-11-13T18:32:05.321Z,87.65
2017-11-13T18:38:09.706Z,86.82
2017-11-13T18:44:13.935Z,87.18
2017-11-13T18:50:17.461Z,87.18
2017-11-13T18:56:21.008Z,87.19
2017-11-13T19:02:24.473Z,87.68
2017-11-13T19:08:29.035Z,87.92
2017-11-13T19:14:32.503Z,88.32
2017-11-13T19:20:35.966Z,88.36
2017-11-13T19:26:39.421Z,88.37
2017-11-13T19:32:42.882Z,88.73
2017-11-13T19:38:46.357Z,89.34
2017-11-13T19:44:50.234Z,89.75
2017-11-13T19:50:53.712Z,88.89
2017-11-13T19:56:57.163Z,91.28
2017-11-13T20:03:01.387Z,90.19
2017-11-13T20:09:04.823Z,90.64
2017-11-13T20:15:08.290Z,90.83
2017-11-13T20:21:11.739Z,91.39
2017-11-13T20:27:15.231Z,91.51
2017-11-13T20:33:18.681Z,92.20
2017-11-13T20:39:22.928Z,92.68
2017-11-13T20:45:26.356Z,91.93
2017-11-13T20:51:30.608Z,91.28
2017-11-13T20:57:34.073Z,91.69
2017-11-13T21:03:37.530Z,91.88
2017-11-13T21:09:41.764Z,91.79
2017-11-13T21:15:45.235Z,91.49
2017-11-13T21:21:48.709Z,91.67
2017-11-13T21:27:52.937Z,91.84
2017-11-13T21:33:56.418Z,92.22
2017-11-13T21:39:59.890Z,91.42
2017-11-13T21:46:03.369Z,91.07
2017-11-13T21:52:06.861Z,91.46
2017-11-13T21:58:10.331Z,92.82
2017-11-13T22:04:13.957Z,92.29
2017-11-13T22:10:17.406Z,92.18
2017-11-13T22:16:20.863Z,91.63
2017-11-13T22:22:24.327Z,91.71
2017-11-13T22:28:27.785Z,92.90
2017-11-13T22:34:31.272Z,91.26
2017-11-13T22:40:34.753Z,91.49
2017-11-13T22:46:38.364Z,91.95
2017-11-13T22:52:41.829Z,92.18
2017-11-13T22:58:45.338Z,92.34
2017-11-13T23:04:48.782Z,91.99
2017-11-13T23:10:52.246Z,90.03
2017-11-13T23:16:55.693Z,90.73
2017-11-13T23:22:59.424Z,90.61
2017-11-13T23:29:02.882Z,90.52
2017-11-13T23:35:07.118Z,90.82
2017-11-13T23:41:10.576Z,91.46
2017-11-13T23:47:14.825Z,92.01
2017-11-13T23:53:18.306Z,91.91
2017-11-13T23:59:21.764Z,90.40
